sensor_id;sensor_type;location;lat;lon;timestamp;P1;durP1;ratioP1;P2;durP2;ratioP2
18867;SDS011;9563;49.240;9.088;2023-11-19T05:02:56;1.40;;;1.17;;
18867;SDS011;9563;49.240;9.088;2023-11-19T05:05:23;1.63;;;1.10;;
18867;SDS011;9563;49.240;9.088;2023-11-19T05:07:50;1.33;;;0.90;;
18867;SDS011;9563;49.240;9.088;2023-11-19T05:10:17;3.00;;;1.20;;
18867;SDS011;9563;49.240;9.088;2023-11-19T05:12:44;1.40;;;0.93;;
18867;SDS011;9563;49.240;9.088;2023-11-19T05:15:11;2.00;;;1.00;;
18867;SDS011;9563;49.240;9.088;2023-11-19T05:17:40;4.23;;;1.30;;
18867;SDS011;9563;49.240;9.088;2023-11-19T05:20:07;3.73;;;1.17;;
18867;SDS011;9563;49.240;9.088;2023-11-19T05:22:38;1.63;;;1.03;;
18867;SDS011;9563;49.240;9.088;2023-11-19T05:25:06;1.63;;;1.00;;
18867;SDS011;9563;49.240;9.088;2023-11-19T05:27:33;2.73;;;1.00;;
18867;SDS011;9563;49.240;9.088;2023-11-19T05:30:00;2.20;;;1.40;;
18867;SDS011;9563;49.240;9.088;2023-11-19T05:32:27;2.57;;;1.27;;
18867;SDS011;9563;49.240;9.088;2023-11-19T05:34:55;3.10;;;1.50;;
18867;SDS011;9563;49.240;9.088;2023-11-19T05:37:22;3.97;;;1.20;;
18867;SDS011;9563;49.240;9.088;2023-11-19T05:39:50;3.23;;;1.60;;
18867;SDS011;9563;49.240;9.088;2023-11-19T05:42:17;1.80;;;1.20;;
18867;SDS011;9563;49.240;9.088;2023-11-19T05:44:44;1.50;;;1.30;;
18867;SDS011;9563;49.240;9.088;2023-11-19T05:47:11;3.33;;;1.40;;
18867;SDS011;9563;49.240;9.088;2023-11-19T05:49:38;2.13;;;1.60;;
18867;SDS011;9563;49.240;9.088;2023-11-19T05:52:06;2.57;;;1.40;;
18867;SDS011;9563;49.240;9.088;2023-11-19T05:54:34;1.80;;;1.30;;
18867;SDS011;9563;49.240;9.088;2023-11-19T05:57:03;2.43;;;1.03;;
18867;SDS011;9563;49.240;9.088;2023-11-19T05:59:30;3.17;;;1.30;;
18867;SDS011;9563;49.240;9.088;2023-11-19T06:01:58;2.57;;;1.40;;
18867;SDS011;9563;49.240;9.088;2023-11-19T06:04:25;1.20;;;1.10;;
18867;SDS011;9563;49.240;9.088;2023-11-19T06:06:52;4.83;;;1.13;;
18867;SDS011;9563;49.240;9.088;2023-11-19T06:09:21;1.67;;;1.10;;
18867;SDS011;9563;49.240;9.088;2023-11-19T06:11:49;1.53;;;1.10;;
18867;SDS011;9563;49.240;9.088;2023-11-19T06:14:16;2.40;;;1.20;;
18867;SDS011;9563;49.240;9.088;2023-11-19T06:16:42;1.23;;;0.90;;
18867;SDS011;9563;49.240;9.088;2023-11-19T06:19:09;0.97;;;0.77;;
18867;SDS011;9563;49.240;9.088;2023-11-19T06:21:37;1.30;;;0.90;;
18867;SDS011;9563;49.240;9.088;2023-11-19T06:24:04;2.97;;;1.00;;
18867;SDS011;9563;49.240;9.088;2023-11-19T06:26:32;1.20;;;0.80;;
18867;SDS011;9563;49.240;9.088;2023-11-19T06:28:59;2.30;;;0.90;;
18867;SDS011;9563;49.240;9.088;2023-11-19T06:31:26;3.83;;;1.30;;
18867;SDS011;9563;49.240;9.088;2023-11-19T06:33:53;8.83;;;0.83;;
18867;SDS011;9563;49.240;9.088;2023-11-19T06:36:20;1.13;;;0.63;;
18867;SDS011;9563;49.240;9.088;2023-11-19T06:38:47;1.10;;;0.70;;
18867;SDS011;9563;49.240;9.088;2023-11-19T06:41:14;4.50;;;0.70;;
18867;SDS011;9563;49.240;9.088;2023-11-19T06:43:42;2.43;;;0.73;;
18867;SDS011;9563;49.240;9.088;2023-11-19T06:46:15;0.80;;;0.50;;
18867;SDS011;9563;49.240;9.088;2023-11-19T06:48:42;0.73;;;0.60;;
18867;SDS011;9563;49.240;9.088;2023-11-19T06:51:10;1.70;;;0.60;;
18867;SDS011;9563;49.240;9.088;2023-11-19T06:53:37;3.67;;;0.63;;
18867;SDS011;9563;49.240;9.088;2023-11-19T06:56:05;1.60;;;0.70;;
18867;SDS011;9563;49.240;9.088;2023-11-19T06:58:35;2.73;;;0.60;;
18867;SDS011;9563;49.240;9.088;2023-11-19T07:01:06;1.03;;;0.60;;
18867;SDS011;9563;49.240;9.088;2023-11-19T07:03:34;0.40;;;0.40;;
18867;SDS011;9563;49.240;9.088;2023-11-19T07:06:01;4.40;;;0.50;;
18867;SDS011;9563;49.240;9.088;2023-11-19T07:08:30;1.60;;;0.43;;
18867;SDS011;9563;49.240;9.088;2023-11-19T07:10:57;2.40;;;0.57;;
18867;SDS011;9563;49.240;9.088;2023-11-19T07:13:24;0.90;;;0.53;;
18867;SDS011;9563;49.240;9.088;2023-11-19T07:15:52;0.75;;;0.50;;
18867;SDS011;9563;49.240;9.088;2023-11-19T07:18:21;0.80;;;0.60;;
18867;SDS011;9563;49.240;9.088;2023-11-19T07:20:48;0.85;;;0.57;;
18867;SDS011;9563;49.240;9.088;2023-11-19T07:23:15;0.73;;;0.40;;
18867;SDS011;9563;49.240;9.088;2023-11-19T07:25:42;0.77;;;0.50;;
18867;SDS011;9563;49.240;9.088;2023-11-19T07:28:10;0.73;;;0.67;;
18867;SDS011;9563;49.240;9.088;2023-11-19T07:30:37;1.33;;;0.70;;
18867;SDS011;9563;49.240;9.088;2023-11-19T07:33:04;2.70;;;0.60;;
18867;SDS011;9563;49.240;9.088;2023-11-19T07:35:33;0.70;;;0.50;;
18867;SDS011;9563;49.240;9.088;2023-11-19T07:38:00;0.90;;;0.40;;
18867;SDS011;9563;49.240;9.088;2023-11-19T07:40:27;2.13;;;0.67;;
18867;SDS011;9563;49.240;9.088;2023-11-19T07:42:54;1.93;;;0.60;;
18867;SDS011;9563;49.240;9.088;2023-11-19T07:45:20;0.40;;;0.40;;
18867;SDS011;9563;49.240;9.088;2023-11-19T07:47:47;1.70;;;0.73;;
18867;SDS011;9563;49.240;9.088;2023-11-19T07:50:16;0.90;;;0.52;;
18867;SDS011;9563;49.240;9.088;2023-11-19T07:52:46;2.73;;;0.63;;
18867;SDS011;9563;49.240;9.088;2023-11-19T07:55:14;4.67;;;0.77;;
18867;SDS011;9563;49.240;9.088;2023-11-19T07:57:41;0.70;;;0.63;;
18867;SDS011;9563;49.240;9.088;2023-11-19T08:00:08;3.83;;;0.50;;
18867;SDS011;9563;49.240;9.088;2023-11-19T08:02:37;0.60;;;0.47;;
18867;SDS011;9563;49.240;9.088;2023-11-19T08:05:05;0.67;;;0.60;;
18867;SDS011;9563;49.240;9.088;2023-11-19T08:07:32;0.30;;;0.30;;
18867;SDS011;9563;49.240;9.088;2023-11-19T08:10:00;0.93;;;0.50;;
18867;SDS011;9563;49.240;9.088;2023-11-19T08:12:27;0.40;;;0.40;;
18867;SDS011;9563;49.240;9.088;2023-11-19T08:14:54;0.77;;;0.30;;
18867;SDS011;9563;49.240;9.088;2023-11-19T08:17:21;0.50;;;0.50;;
18867;SDS011;9563;49.240;9.088;2023-11-19T08:19:48;1.77;;;0.50;;
18867;SDS011;9563;49.240;9.088;2023-11-19T08:22:15;0.53;;;0.40;;
18867;SDS011;9563;49.240;9.088;2023-11-19T08:24:42;0.60;;;0.50;;
18867;SDS011;9563;49.240;9.088;2023-11-19T08:27:11;1.02;;;0.30;;
18867;SDS011;9563;49.240;9.088;2023-11-19T08:29:38;0.98;;;0.50;;
18867;SDS011;9563;49.240;9.088;2023-11-19T08:32:05;3.10;;;1.58;;
18867;SDS011;9563;49.240;9.088;2023-11-19T08:34:32;0.52;;;0.43;;
18867;SDS011;9563;49.240;9.088;2023-11-19T08:36:59;0.93;;;0.63;;
18867;SDS011;9563;49.240;9.088;2023-11-19T08:39:26;1.25;;;0.55;;
18867;SDS011;9563;49.240;9.088;2023-11-19T08:41:53;3.58;;;0.60;;
18867;SDS011;9563;49.240;9.088;2023-11-19T08:44:22;0.98;;;0.40;;
18867;SDS011;9563;49.240;9.088;2023-11-19T08:46:49;4.72;;;0.50;;
18867;SDS011;9563;49.240;9.088;2023-11-19T08:49:15;2.08;;;0.50;;
18867;SDS011;9563;49.240;9.088;2023-11-19T08:51:42;2.08;;;0.60;;
18867;SDS011;9563;49.240;9.088;2023-11-19T08:54:10;0.77;;;0.57;;
18867;SDS011;9563;49.240;9.088;2023-11-19T08:56:37;1.27;;;0.45;;
18867;SDS011;9563;49.240;9.088;2023-11-19T08:59:05;0.50;;;0.45;;
18867;SDS011;9563;49.240;9.088;2023-11-19T09:01:33;0.85;;;0.52;;
18867;SDS011;9563;49.240;9.088;2023-11-19T09:04:00;2.67;;;0.50;;
18867;SDS011;9563;49.240;9.088;2023-11-19T09:06:27;0.35;;;0.32;;
18867;SDS011;9563;49.240;9.088;2023-11-19T09:08:53;0.90;;;0.50;;
18867;SDS011;9563;49.240;9.088;2023-11-19T09:11:25;0.47;;;0.40;;
18867;SDS011;9563;49.240;9.088;2023-11-19T09:13:52;0.82;;;0.40;;
18867;SDS011;9563;49.240;9.088;2023-11-19T09:16:19;0.73;;;0.50;;
18867;SDS011;9563;49.240;9.088;2023-11-19T09:18:48;1.58;;;0.70;;
18867;SDS011;9563;49.240;9.088;2023-11-19T09:21:15;2.97;;;0.80;;
18867;SDS011;9563;49.240;9.088;2023-11-19T09:23:42;1.67;;;0.50;;
18867;SDS011;9563;49.240;9.088;2023-11-19T09:26:09;3.13;;;0.65;;
18867;SDS011;9563;49.240;9.088;2023-11-19T09:28:36;1.27;;;0.40;;
18867;SDS011;9563;49.240;9.088;2023-11-19T09:31:03;1.08;;;0.60;;
18867;SDS011;9563;49.240;9.088;2023-11-19T09:33:38;1.02;;;0.47;;
18867;SDS011;9563;49.240;9.088;2023-11-19T09:36:08;4.95;;;0.80;;
18867;SDS011;9563;49.240;9.088;2023-11-19T09:38:35;2.90;;;0.73;;
18867;SDS011;9563;49.240;9.088;2023-11-19T09:41:03;2.97;;;0.63;;
18867;SDS011;9563;49.240;9.088;2023-11-19T09:43:33;0.50;;;0.50;;
18867;SDS011;9563;49.240;9.088;2023-11-19T09:46:01;1.15;;;0.75;;
18867;SDS011;9563;49.240;9.088;2023-11-19T09:48:32;1.55;;;0.60;;
18867;SDS011;9563;49.240;9.088;2023-11-19T09:51:02;2.30;;;0.60;;
18867;SDS011;9563;49.240;9.088;2023-11-19T09:53:31;3.83;;;0.90;;
18867;SDS011;9563;49.240;9.088;2023-11-19T09:55:59;2.38;;;0.60;;
18867;SDS011;9563;49.240;9.088;2023-11-19T09:58:28;6.35;;;0.85;;
18867;SDS011;9563;49.240;9.088;2023-11-19T10:00:55;0.82;;;0.60;;
18867;SDS011;9563;49.240;9.088;2023-11-19T10:03:24;1.45;;;0.55;;
18867;SDS011;9563;49.240;9.088;2023-11-19T10:05:52;1.23;;;0.50;;
18867;SDS011;9563;49.240;9.088;2023-11-19T10:08:21;1.90;;;0.50;;
18867;SDS011;9563;49.240;9.088;2023-11-19T10:10:49;3.28;;;0.80;;
18867;SDS011;9563;49.240;9.088;2023-11-19T10:13:16;0.93;;;0.47;;
18867;SDS011;9563;49.240;9.088;2023-11-19T10:15:44;3.28;;;0.57;;
18867;SDS011;9563;49.240;9.088;2023-11-19T10:18:12;1.42;;;0.63;;
18867;SDS011;9563;49.240;9.088;2023-11-19T10:20:40;0.93;;;0.60;;
18867;SDS011;9563;49.240;9.088;2023-11-19T10:23:08;1.35;;;0.65;;
18867;SDS011;9563;49.240;9.088;2023-11-19T10:25:35;1.33;;;0.70;;
18867;SDS011;9563;49.240;9.088;2023-11-19T10:28:04;0.88;;;0.50;;
18867;SDS011;9563;49.240;9.088;2023-11-19T10:30:31;1.13;;;0.50;;
18867;SDS011;9563;49.240;9.088;2023-11-19T10:33:05;1.55;;;0.47;;
18867;SDS011;9563;49.240;9.088;2023-11-19T10:35:33;3.85;;;0.93;;
18867;SDS011;9563;49.240;9.088;2023-11-19T10:38:02;3.38;;;0.63;;
18867;SDS011;9563;49.240;9.088;2023-11-19T10:40:40;2.72;;;0.50;;
18867;SDS011;9563;49.240;9.088;2023-11-19T10:43:09;0.90;;;0.57;;
18867;SDS011;9563;49.240;9.088;2023-11-19T10:45:36;1.88;;;0.60;;
18867;SDS011;9563;49.240;9.088;2023-11-19T10:48:04;1.00;;;0.50;;
18867;SDS011;9563;49.240;9.088;2023-11-19T10:50:32;4.00;;;0.82;;
18867;SDS011;9563;49.240;9.088;2023-11-19T10:53:00;2.97;;;0.55;;
18867;SDS011;9563;49.240;9.088;2023-11-19T10:55:28;2.55;;;0.90;;
18867;SDS011;9563;49.240;9.088;2023-11-19T10:57:58;1.48;;;0.57;;
18867;SDS011;9563;49.240;9.088;2023-11-19T11:00:28;2.33;;;0.60;;
18867;SDS011;9563;49.240;9.088;2023-11-19T11:03:00;3.17;;;1.13;;
18867;SDS011;9563;49.240;9.088;2023-11-19T11:05:29;3.67;;;0.73;;
18867;SDS011;9563;49.240;9.088;2023-11-19T11:08:00;2.13;;;0.65;;
18867;SDS011;9563;49.240;9.088;2023-11-19T11:10:27;1.52;;;0.65;;
18867;SDS011;9563;49.240;9.088;2023-11-19T11:13:01;2.20;;;0.57;;
18867;SDS011;9563;49.240;9.088;2023-11-19T11:15:31;0.90;;;0.60;;
18867;SDS011;9563;49.240;9.088;2023-11-19T11:17:59;2.90;;;0.60;;
18867;SDS011;9563;49.240;9.088;2023-11-19T11:20:28;4.53;;;1.40;;
18867;SDS011;9563;49.240;9.088;2023-11-19T11:23:02;1.73;;;0.68;;
18867;SDS011;9563;49.240;9.088;2023-11-19T11:25:43;4.13;;;0.88;;
18867;SDS011;9563;49.240;9.088;2023-11-19T11:28:18;3.22;;;0.73;;
18867;SDS011;9563;49.240;9.088;2023-11-19T11:34:10;4.60;;;0.70;;
18867;SDS011;9563;49.240;9.088;2023-11-19T11:36:53;3.20;;;0.80;;
18867;SDS011;9563;49.240;9.088;2023-11-19T11:39:25;1.92;;;0.70;;
18867;SDS011;9563;49.240;9.088;2023-11-19T11:44:59;2.40;;;0.82;;
18867;SDS011;9563;49.240;9.088;2023-11-19T11:50:31;1.77;;;0.80;;
18867;SDS011;9563;49.240;9.088;2023-11-19T11:53:15;1.95;;;1.08;;
18867;SDS011;9563;49.240;9.088;2023-11-19T11:55:53;2.22;;;0.70;;
18867;SDS011;9563;49.240;9.088;2023-11-19T11:58:21;4.68;;;0.60;;
18867;SDS011;9563;49.240;9.088;2023-11-19T12:00:53;3.50;;;0.60;;
18867;SDS011;9563;49.240;9.088;2023-11-19T12:03:20;1.77;;;0.80;;
18867;SDS011;9563;49.240;9.088;2023-11-19T12:05:49;2.72;;;0.70;;
18867;SDS011;9563;49.240;9.088;2023-11-19T12:08:18;2.80;;;0.73;;
18867;SDS011;9563;49.240;9.088;2023-11-19T12:10:47;2.35;;;0.80;;
18867;SDS011;9563;49.240;9.088;2023-11-19T12:13:15;1.67;;;1.00;;
18867;SDS011;9563;49.240;9.088;2023-11-19T12:18:33;3.90;;;0.90;;
18867;SDS011;9563;49.240;9.088;2023-11-19T12:21:02;3.63;;;0.82;;
18867;SDS011;9563;49.240;9.088;2023-11-19T12:23:30;1.67;;;0.77;;
18867;SDS011;9563;49.240;9.088;2023-11-19T12:25:58;6.18;;;0.85;;
18867;SDS011;9563;49.240;9.088;2023-11-19T12:28:25;1.02;;;0.68;;
18867;SDS011;9563;49.240;9.088;2023-11-19T12:30:52;1.05;;;0.68;;
18867;SDS011;9563;49.240;9.088;2023-11-19T12:33:20;4.30;;;1.02;;
18867;SDS011;9563;49.240;9.088;2023-11-19T12:35:47;3.03;;;0.77;;
18867;SDS011;9563;49.240;9.088;2023-11-19T12:38:22;1.90;;;0.60;;
18867;SDS011;9563;49.240;9.088;2023-11-19T12:41:02;2.85;;;0.80;;
18867;SDS011;9563;49.240;9.088;2023-11-19T12:43:29;1.02;;;0.82;;
18867;SDS011;9563;49.240;9.088;2023-11-19T12:45:59;1.27;;;0.80;;
18867;SDS011;9563;49.240;9.088;2023-11-19T12:48:26;1.65;;;0.65;;
18867;SDS011;9563;49.240;9.088;2023-11-19T12:50:53;3.88;;;0.88;;
18867;SDS011;9563;49.240;9.088;2023-11-19T12:53:22;3.55;;;0.90;;
18867;SDS011;9563;49.240;9.088;2023-11-19T12:55:51;1.90;;;0.60;;
18867;SDS011;9563;49.240;9.088;2023-11-19T12:58:29;2.83;;;0.70;;
18867;SDS011;9563;49.240;9.088;2023-11-19T13:01:00;2.40;;;0.77;;
18867;SDS011;9563;49.240;9.088;2023-11-19T13:03:31;6.05;;;0.70;;
18867;SDS011;9563;49.240;9.088;2023-11-19T13:06:02;2.63;;;0.77;;
18867;SDS011;9563;49.240;9.088;2023-11-19T13:08:37;1.88;;;0.70;;
18867;SDS011;9563;49.240;9.088;2023-11-19T13:11:04;4.45;;;1.35;;
18867;SDS011;9563;49.240;9.088;2023-11-19T13:13:32;3.67;;;0.95;;
18867;SDS011;9563;49.240;9.088;2023-11-19T13:16:04;2.05;;;0.82;;
18867;SDS011;9563;49.240;9.088;2023-11-19T13:18:31;2.30;;;0.70;;
18867;SDS011;9563;49.240;9.088;2023-11-19T13:20:58;1.17;;;0.80;;
18867;SDS011;9563;49.240;9.088;2023-11-19T13:23:26;1.95;;;0.60;;
18867;SDS011;9563;49.240;9.088;2023-11-19T13:25:54;1.48;;;0.60;;
18867;SDS011;9563;49.240;9.088;2023-11-19T13:28:21;1.50;;;0.70;;
18867;SDS011;9563;49.240;9.088;2023-11-19T13:30:48;1.52;;;0.73;;
18867;SDS011;9563;49.240;9.088;2023-11-19T13:33:16;4.07;;;0.65;;
18867;SDS011;9563;49.240;9.088;2023-11-19T13:35:43;2.40;;;0.50;;
18867;SDS011;9563;49.240;9.088;2023-11-19T13:38:10;2.67;;;0.90;;
18867;SDS011;9563;49.240;9.088;2023-11-19T13:40:37;3.00;;;0.88;;
18867;SDS011;9563;49.240;9.088;2023-11-19T13:43:06;1.95;;;0.70;;
18867;SDS011;9563;49.240;9.088;2023-11-19T13:45:33;5.53;;;1.10;;
18867;SDS011;9563;49.240;9.088;2023-11-19T13:48:00;1.92;;;1.05;;
18867;SDS011;9563;49.240;9.088;2023-11-19T13:50:27;1.95;;;0.57;;
18867;SDS011;9563;49.240;9.088;2023-11-19T13:52:54;2.08;;;0.75;;
18867;SDS011;9563;49.240;9.088;2023-11-19T13:55:21;1.95;;;0.82;;
18867;SDS011;9563;49.240;9.088;2023-11-19T13:57:48;4.80;;;0.90;;
18867;SDS011;9563;49.240;9.088;2023-11-19T14:00:17;6.38;;;1.30;;
18867;SDS011;9563;49.240;9.088;2023-11-19T14:02:45;1.63;;;0.73;;
18867;SDS011;9563;49.240;9.088;2023-11-19T14:05:13;3.15;;;1.13;;
18867;SDS011;9563;49.240;9.088;2023-11-19T14:07:42;1.90;;;0.88;;
18867;SDS011;9563;49.240;9.088;2023-11-19T14:10:10;4.53;;;0.82;;
18867;SDS011;9563;49.240;9.088;2023-11-19T14:12:37;3.00;;;0.80;;
18867;SDS011;9563;49.240;9.088;2023-11-19T14:15:04;2.67;;;0.70;;
18867;SDS011;9563;49.240;9.088;2023-11-19T14:17:33;1.55;;;0.70;;
18867;SDS011;9563;49.240;9.088;2023-11-19T14:20:00;1.25;;;0.70;;
18867;SDS011;9563;49.240;9.088;2023-11-19T14:22:28;2.75;;;0.77;;
18867;SDS011;9563;49.240;9.088;2023-11-19T14:24:55;2.25;;;0.80;;
18867;SDS011;9563;49.240;9.088;2023-11-19T14:27:22;3.13;;;0.80;;
18867;SDS011;9563;49.240;9.088;2023-11-19T14:29:49;5.30;;;1.02;;
18867;SDS011;9563;49.240;9.088;2023-11-19T14:32:16;1.58;;;0.80;;
18867;SDS011;9563;49.240;9.088;2023-11-19T14:34:44;2.10;;;1.00;;
18867;SDS011;9563;49.240;9.088;2023-11-19T14:37:11;2.50;;;1.00;;
18867;SDS011;9563;49.240;9.088;2023-11-19T14:39:38;2.80;;;1.00;;
18867;SDS011;9563;49.240;9.088;2023-11-19T14:42:05;9.57;;;1.17;;
18867;SDS011;9563;49.240;9.088;2023-11-19T14:44:35;1.38;;;0.80;;
18867;SDS011;9563;49.240;9.088;2023-11-19T14:47:02;2.60;;;0.82;;
18867;SDS011;9563;49.240;9.088;2023-11-19T14:49:30;3.90;;;0.90;;
18867;SDS011;9563;49.240;9.088;2023-11-19T14:51:58;2.92;;;0.95;;
18867;SDS011;9563;49.240;9.088;2023-11-19T14:54:25;3.13;;;1.27;;
18867;SDS011;9563;49.240;9.088;2023-11-19T14:56:52;3.50;;;0.98;;
18867;SDS011;9563;49.240;9.088;2023-11-19T14:59:19;2.47;;;1.00;;
18867;SDS011;9563;49.240;9.088;2023-11-19T15:01:46;7.68;;;1.42;;
18867;SDS011;9563;49.240;9.088;2023-11-19T15:04:12;3.13;;;1.00;;
18867;SDS011;9563;49.240;9.088;2023-11-19T15:06:41;3.30;;;0.93;;
18867;SDS011;9563;49.240;9.088;2023-11-19T15:09:09;3.50;;;0.95;;
18867;SDS011;9563;49.240;9.088;2023-11-19T15:11:42;8.80;;;1.15;;
18867;SDS011;9563;49.240;9.088;2023-11-19T15:14:11;2.72;;;0.88;;
18867;SDS011;9563;49.240;9.088;2023-11-19T15:16:40;3.15;;;0.93;;
18867;SDS011;9563;49.240;9.088;2023-11-19T15:19:07;6.57;;;1.10;;
18867;SDS011;9563;49.240;9.088;2023-11-19T15:21:34;4.20;;;1.25;;
18867;SDS011;9563;49.240;9.088;2023-11-19T15:24:00;2.90;;;0.93;;
18867;SDS011;9563;49.240;9.088;2023-11-19T15:26:31;2.40;;;0.93;;
18867;SDS011;9563;49.240;9.088;2023-11-19T15:28:57;3.40;;;1.00;;
18867;SDS011;9563;49.240;9.088;2023-11-19T15:31:24;3.47;;;1.00;;
18867;SDS011;9563;49.240;9.088;2023-11-19T15:33:51;4.20;;;1.23;;
18867;SDS011;9563;49.240;9.088;2023-11-19T15:36:19;4.90;;;1.33;;
18867;SDS011;9563;49.240;9.088;2023-11-19T15:38:46;3.90;;;1.27;;
18867;SDS011;9563;49.240;9.088;2023-11-19T15:41:13;6.82;;;1.55;;
18867;SDS011;9563;49.240;9.088;2023-11-19T15:43:42;6.75;;;1.50;;
18867;SDS011;9563;49.240;9.088;2023-11-19T15:46:09;5.30;;;1.45;;
18867;SDS011;9563;49.240;9.088;2023-11-19T15:48:37;2.53;;;1.33;;
18867;SDS011;9563;49.240;9.088;2023-11-19T15:51:04;3.00;;;1.02;;
18867;SDS011;9563;49.240;9.088;2023-11-19T15:53:32;4.60;;;1.20;;
18867;SDS011;9563;49.240;9.088;2023-11-19T15:55:59;6.70;;;0.95;;
18867;SDS011;9563;49.240;9.088;2023-11-19T15:58:26;5.63;;;1.65;;
18867;SDS011;9563;49.240;9.088;2023-11-19T16:00:55;4.07;;;0.90;;
18867;SDS011;9563;49.240;9.088;2023-11-19T16:03:21;7.63;;;1.33;;
18867;SDS011;9563;49.240;9.088;2023-11-19T16:05:49;3.92;;;1.10;;
18867;SDS011;9563;49.240;9.088;2023-11-19T16:08:16;5.22;;;1.30;;
18867;SDS011;9563;49.240;9.088;2023-11-19T16:10:42;4.90;;;1.10;;
18867;SDS011;9563;49.240;9.088;2023-11-19T16:13:11;2.63;;;0.80;;
18867;SDS011;9563;49.240;9.088;2023-11-19T16:15:38;2.63;;;1.38;;
18867;SDS011;9563;49.240;9.088;2023-11-19T16:18:06;3.72;;;1.10;;
18867;SDS011;9563;49.240;9.088;2023-11-19T16:20:35;5.13;;;1.23;;
18867;SDS011;9563;49.240;9.088;2023-11-19T16:23:02;2.58;;;1.25;;
18867;SDS011;9563;49.240;9.088;2023-11-19T16:25:29;5.43;;;1.17;;
18867;SDS011;9563;49.240;9.088;2023-11-19T16:27:56;3.47;;;0.95;;
18867;SDS011;9563;49.240;9.088;2023-11-19T16:30:23;6.65;;;1.10;;
18867;SDS011;9563;49.240;9.088;2023-11-19T16:32:51;4.88;;;1.23;;
18867;SDS011;9563;49.240;9.088;2023-11-19T16:35:21;2.58;;;0.90;;
18867;SDS011;9563;49.240;9.088;2023-11-19T16:37:48;2.47;;;0.98;;
18867;SDS011;9563;49.240;9.088;2023-11-19T16:40:15;7.60;;;1.17;;
18867;SDS011;9563;49.240;9.088;2023-11-19T16:42:42;2.85;;;1.20;;
18867;SDS011;9563;49.240;9.088;2023-11-19T16:45:11;3.88;;;1.20;;
18867;SDS011;9563;49.240;9.088;2023-11-19T16:47:38;3.30;;;1.10;;
18867;SDS011;9563;49.240;9.088;2023-11-19T16:50:05;3.80;;;0.93;;
18867;SDS011;9563;49.240;9.088;2023-11-19T16:52:34;5.50;;;1.20;;
18867;SDS011;9563;49.240;9.088;2023-11-19T16:55:01;3.58;;;1.13;;
18867;SDS011;9563;49.240;9.088;2023-11-19T16:57:31;3.72;;;0.98;;
18867;SDS011;9563;49.240;9.088;2023-11-19T16:59:58;2.45;;;1.17;;
18867;SDS011;9563;49.240;9.088;2023-11-19T17:02:25;7.75;;;1.40;;
18867;SDS011;9563;49.240;9.088;2023-11-19T17:04:53;4.60;;;1.20;;
18867;SDS011;9563;49.240;9.088;2023-11-19T17:07:22;4.50;;;1.10;;
18867;SDS011;9563;49.240;9.088;2023-11-19T17:09:52;2.72;;;1.30;;
18867;SDS011;9563;49.240;9.088;2023-11-19T17:12:20;2.10;;;1.08;;
18867;SDS011;9563;49.240;9.088;2023-11-19T17:14:47;7.55;;;1.58;;
18867;SDS011;9563;49.240;9.088;2023-11-19T17:17:15;2.55;;;1.00;;
18867;SDS011;9563;49.240;9.088;2023-11-19T17:19:41;3.83;;;1.23;;
18867;SDS011;9563;49.240;9.088;2023-11-19T17:22:08;1.50;;;0.93;;
18867;SDS011;9563;49.240;9.088;2023-11-19T17:24:35;3.50;;;1.10;;
18867;SDS011;9563;49.240;9.088;2023-11-19T17:27:04;2.83;;;1.00;;
18867;SDS011;9563;49.240;9.088;2023-11-19T17:29:31;3.83;;;1.08;;
18867;SDS011;9563;49.240;9.088;2023-11-19T17:31:58;3.45;;;1.10;;
18867;SDS011;9563;49.240;9.088;2023-11-19T17:34:24;6.25;;;1.27;;
18867;SDS011;9563;49.240;9.088;2023-11-19T17:36:51;6.45;;;0.90;;
18867;SDS011;9563;49.240;9.088;2023-11-19T17:39:18;4.13;;;1.27;;
18867;SDS011;9563;49.240;9.088;2023-11-19T17:41:45;3.22;;;0.80;;
18867;SDS011;9563;49.240;9.088;2023-11-19T17:44:14;5.82;;;0.95;;
18867;SDS011;9563;49.240;9.088;2023-11-19T17:46:41;4.03;;;1.20;;
18867;SDS011;9563;49.240;9.088;2023-11-19T17:49:07;4.13;;;0.75;;
18867;SDS011;9563;49.240;9.088;2023-11-19T17:51:35;3.42;;;1.02;;
18867;SDS011;9563;49.240;9.088;2023-11-19T17:54:02;5.05;;;1.20;;
18867;SDS011;9563;49.240;9.088;2023-11-19T17:56:29;5.70;;;1.58;;
18867;SDS011;9563;49.240;9.088;2023-11-19T17:58:56;4.65;;;1.10;;
18867;SDS011;9563;49.240;9.088;2023-11-19T18:01:24;3.65;;;1.05;;
18867;SDS011;9563;49.240;9.088;2023-11-19T18:03:51;4.82;;;0.93;;
18867;SDS011;9563;49.240;9.088;2023-11-19T18:06:18;6.18;;;1.40;;
18867;SDS011;9563;49.240;9.088;2023-11-19T18:08:45;7.63;;;1.58;;
18867;SDS011;9563;49.240;9.088;2023-11-19T18:11:13;3.38;;;1.38;;
18867;SDS011;9563;49.240;9.088;2023-11-19T18:13:40;7.03;;;1.30;;
18867;SDS011;9563;49.240;9.088;2023-11-19T18:16:08;6.97;;;1.25;;
18867;SDS011;9563;49.240;9.088;2023-11-19T18:18:39;4.50;;;1.00;;
18867;SDS011;9563;49.240;9.088;2023-11-19T18:21:06;7.55;;;1.10;;
18867;SDS011;9563;49.240;9.088;2023-11-19T18:23:33;5.88;;;1.42;;
18867;SDS011;9563;49.240;9.088;2023-11-19T18:26:00;6.15;;;1.30;;
18867;SDS011;9563;49.240;9.088;2023-11-19T18:28:28;5.82;;;1.40;;
18867;SDS011;9563;49.240;9.088;2023-11-19T18:30:54;10.50;;;1.23;;
18867;SDS011;9563;49.240;9.088;2023-11-19T18:33:22;7.72;;;1.48;;
18867;SDS011;9563;49.240;9.088;2023-11-19T18:35:50;5.38;;;1.60;;
18867;SDS011;9563;49.240;9.088;2023-11-19T18:38:17;5.72;;;1.40;;
18867;SDS011;9563;49.240;9.088;2023-11-19T18:40:44;5.28;;;1.52;;
18867;SDS011;9563;49.240;9.088;2023-11-19T18:43:11;4.75;;;1.10;;
18867;SDS011;9563;49.240;9.088;2023-11-19T18:45:39;3.90;;;1.48;;
18867;SDS011;9563;49.240;9.088;2023-11-19T18:48:06;10.55;;;1.40;;
18867;SDS011;9563;49.240;9.088;2023-11-19T18:50:33;7.40;;;1.38;;
18867;SDS011;9563;49.240;9.088;2023-11-19T18:53:03;3.03;;;1.00;;
18867;SDS011;9563;49.240;9.088;2023-11-19T18:55:33;11.02;;;1.50;;
18867;SDS011;9563;49.240;9.088;2023-11-19T18:58:00;4.75;;;1.48;;
18867;SDS011;9563;49.240;9.088;2023-11-19T19:00:28;3.70;;;1.27;;
18867;SDS011;9563;49.240;9.088;2023-11-19T19:02:55;9.57;;;1.75;;
18867;SDS011;9563;49.240;9.088;2023-11-19T19:05:22;7.00;;;2.13;;
18867;SDS011;9563;49.240;9.088;2023-11-19T19:07:49;8.23;;;1.50;;
18867;SDS011;9563;49.240;9.088;2023-11-19T19:10:19;10.10;;;1.20;;
18867;SDS011;9563;49.240;9.088;2023-11-19T19:12:45;7.68;;;1.73;;
18867;SDS011;9563;49.240;9.088;2023-11-19T19:15:12;13.88;;;2.08;;
18867;SDS011;9563;49.240;9.088;2023-11-19T19:17:39;7.85;;;2.15;;
18867;SDS011;9563;49.240;9.088;2023-11-19T19:20:07;10.18;;;1.90;;
18867;SDS011;9563;49.240;9.088;2023-11-19T19:22:35;14.18;;;1.80;;
18867;SDS011;9563;49.240;9.088;2023-11-19T19:25:05;8.27;;;2.00;;
18867;SDS011;9563;49.240;9.088;2023-11-19T19:27:34;13.40;;;1.90;;
18867;SDS011;9563;49.240;9.088;2023-11-19T19:30:01;11.10;;;2.20;;
18867;SDS011;9563;49.240;9.088;2023-11-19T19:32:28;8.73;;;1.67;;
18867;SDS011;9563;49.240;9.088;2023-11-19T19:34:55;6.95;;;1.90;;
18867;SDS011;9563;49.240;9.088;2023-11-19T19:37:22;9.07;;;1.70;;
18867;SDS011;9563;49.240;9.088;2023-11-19T19:39:49;9.27;;;1.73;;
18867;SDS011;9563;49.240;9.088;2023-11-19T19:42:16;11.38;;;2.15;;
18867;SDS011;9563;49.240;9.088;2023-11-19T19:44:44;15.40;;;2.75;;
18867;SDS011;9563;49.240;9.088;2023-11-19T19:47:11;8.82;;;2.13;;
18867;SDS011;9563;49.240;9.088;2023-11-19T19:49:38;9.37;;;2.13;;
18867;SDS011;9563;49.240;9.088;2023-11-19T19:52:05;8.25;;;1.70;;
18867;SDS011;9563;49.240;9.088;2023-11-19T19:54:33;12.52;;;2.15;;
18867;SDS011;9563;49.240;9.088;2023-11-19T19:57:00;10.20;;;2.10;;
18867;SDS011;9563;49.240;9.088;2023-11-19T19:59:28;7.75;;;1.83;;
18867;SDS011;9563;49.240;9.088;2023-11-19T20:01:56;9.45;;;1.95;;
18867;SDS011;9563;49.240;9.088;2023-11-19T20:04:23;12.57;;;2.43;;
18867;SDS011;9563;49.240;9.088;2023-11-19T20:06:50;9.27;;;2.07;;
18867;SDS011;9563;49.240;9.088;2023-11-19T20:09:18;11.23;;;2.30;;
18867;SDS011;9563;49.240;9.088;2023-11-19T20:11:47;12.20;;;2.23;;
18867;SDS011;9563;49.240;9.088;2023-11-19T20:14:16;9.60;;;1.88;;
18867;SDS011;9563;49.240;9.088;2023-11-19T20:16:47;7.87;;;2.00;;
18867;SDS011;9563;49.240;9.088;2023-11-19T20:19:16;10.47;;;1.87;;